createdAt,value
2023-05-17T00:00:47.725Z,3.25
2023-05-17T00:01:57.611Z,4.03
2023-05-17T00:04:23.632Z,2.97
2023-05-17T00:06:47.806Z,3.27
2023-05-17T00:07:56.675Z,3.00
2023-05-17T00:09:07.420Z,3.32
2023-05-17T00:10:17.929Z,3.03
2023-05-17T00:11:28.651Z,3.67
2023-05-17T00:15:02.575Z,3.68
2023-05-17T00:16:12.327Z,3.43
2023-05-17T00:17:21.238Z,2.93
2023-05-17T00:18:32.069Z,3.55
2023-05-17T00:20:57.705Z,3.22
2023-05-17T00:23:23.834Z,3.15
2023-05-17T00:24:33.575Z,3.47
2023-05-17T00:27:00.471Z,3.33
2023-05-17T00:29:25.007Z,2.97
2023-05-17T00:30:34.295Z,3.10
2023-05-17T00:33:00.944Z,4.02
2023-05-17T00:34:10.831Z,3.75
2023-05-17T00:36:36.406Z,3.65
2023-05-17T00:39:03.862Z,3.28
2023-05-17T00:41:33.782Z,3.37
2023-05-17T00:42:43.517Z,3.05
2023-05-17T00:43:52.378Z,3.30
2023-05-17T00:46:35.999Z,3.83
2023-05-17T00:47:44.704Z,3.32
2023-05-17T00:48:55.319Z,3.22
2023-05-17T00:51:22.387Z,3.40
2023-05-17T00:53:49.633Z,3.15
2023-05-17T00:56:15.581Z,3.12
2023-05-17T00:57:24.413Z,3.48
2023-05-17T00:58:35.356Z,3.00
2023-05-17T00:59:47.795Z,3.50
2023-05-17T01:00:57.354Z,2.98
2023-05-17T01:03:33.871Z,3.10
2023-05-17T01:06:00.210Z,3.50
2023-05-17T01:08:26.376Z,3.08
2023-05-17T01:11:02.616Z,2.87
2023-05-17T01:13:36.929Z,3.05
2023-05-17T01:16:20.053Z,3.72
2023-05-17T01:17:42.265Z,3.53
2023-05-17T01:20:40.879Z,3.60
2023-05-17T01:25:23.068Z,3.13
2023-05-17T01:27:59.761Z,3.15
2023-05-17T01:30:26.677Z,3.50
2023-05-17T01:33:00.804Z,3.30
2023-05-17T01:35:26.597Z,3.25
2023-05-17T01:37:54.452Z,3.57
2023-05-17T01:40:21.752Z,3.15
2023-05-17T01:44:42.431Z,3.58
2023-05-17T01:47:26.379Z,3.60
2023-05-17T01:49:58.378Z,3.70
2023-05-17T01:52:44.167Z,3.35
2023-05-17T01:55:28.262Z,3.20
2023-05-17T01:58:03.385Z,3.55
2023-05-17T02:00:41.316Z,3.10
2023-05-17T02:03:15.971Z,3.30
2023-05-17T02:04:25.809Z,3.37
2023-05-17T02:06:50.458Z,3.35
2023-05-17T02:09:34.642Z,3.52
2023-05-17T02:10:44.676Z,3.45
2023-05-17T02:13:10.395Z,3.45
2023-05-17T02:14:22.460Z,3.40
2023-05-17T02:16:46.887Z,3.55
2023-05-17T02:19:12.575Z,3.98
2023-05-17T02:20:28.232Z,3.32
2023-05-17T02:21:37.275Z,3.48
2023-05-17T02:22:48.035Z,3.33
2023-05-17T02:26:25.294Z,3.35
2023-05-17T02:28:51.725Z,3.32
2023-05-17T02:30:02.049Z,3.17
2023-05-17T02:32:25.993Z,3.58
2023-05-17T02:34:52.511Z,3.08
2023-05-17T02:36:01.428Z,3.17
2023-05-17T02:37:11.474Z,3.20
2023-05-17T02:39:36.735Z,3.38
2023-05-17T02:40:49.463Z,2.93
2023-05-17T02:44:21.963Z,3.27
2023-05-17T02:45:32.504Z,3.35
2023-05-17T02:47:58.815Z,3.65
2023-05-17T02:50:24.606Z,2.92
2023-05-17T02:51:34.483Z,3.40
2023-05-17T02:54:00.113Z,3.68
2023-05-17T02:56:25.684Z,3.72
2023-05-17T02:58:51.036Z,3.57
2023-05-17T03:00:00.710Z,3.05
2023-05-17T03:02:28.678Z,3.00
2023-05-17T03:03:38.861Z,3.68
2023-05-17T03:06:06.621Z,3.17
2023-05-17T03:07:16.469Z,3.52
2023-05-17T03:09:43.383Z,3.77
2023-05-17T03:12:09.538Z,3.48
2023-05-17T03:14:33.758Z,3.47
2023-05-17T03:16:59.942Z,3.42
2023-05-17T03:19:25.009Z,3.22
2023-05-17T03:21:49.498Z,3.67
2023-05-17T03:24:14.514Z,3.28
2023-05-17T03:26:40.417Z,3.55
2023-05-17T03:27:50.983Z,3.08
2023-05-17T03:30:16.377Z,3.28
2023-05-17T03:31:27.952Z,3.10
2023-05-17T03:32:39.828Z,3.50
2023-05-17T03:35:05.652Z,3.30
2023-05-17T03:36:15.807Z,3.65
2023-05-17T03:38:41.335Z,3.47
2023-05-17T03:41:06.280Z,4.22
2023-05-17T03:43:31.638Z,3.77
2023-05-17T03:44:42.498Z,4.40
2023-05-17T03:47:06.832Z,3.60
2023-05-17T03:49:32.965Z,3.63
2023-05-17T03:51:57.550Z,3.10
2023-05-17T03:53:08.523Z,3.85
2023-05-17T03:54:19.694Z,3.67
2023-05-17T03:56:48.529Z,3.98
2023-05-17T03:57:58.698Z,3.88
2023-05-17T03:59:07.538Z,3.65
2023-05-17T04:01:35.883Z,3.85
2023-05-17T04:04:01.974Z,3.40
2023-05-17T04:06:29.900Z,3.52
2023-05-17T04:08:55.900Z,3.95
2023-05-17T04:11:24.322Z,3.47
2023-05-17T04:13:51.106Z,3.82
2023-05-17T04:16:16.285Z,3.92
2023-05-17T04:17:25.499Z,4.13
2023-05-17T04:19:53.992Z,3.37
2023-05-17T04:22:22.017Z,4.13
2023-05-17T04:24:52.172Z,3.80
2023-05-17T04:27:12.573Z,4.00
2023-05-17T04:29:39.351Z,3.17
2023-05-17T04:30:49.026Z,3.97
2023-05-17T04:31:58.234Z,3.98
2023-05-17T04:34:26.637Z,3.82
2023-05-17T04:36:52.561Z,3.32
2023-05-17T04:38:02.949Z,3.80
2023-05-17T04:40:27.560Z,3.65
2023-05-17T04:41:38.253Z,3.54
2023-05-17T04:44:08.003Z,3.70
2023-05-17T04:46:34.087Z,3.35
2023-05-17T04:48:58.631Z,3.75
2023-05-17T04:51:24.932Z,4.20
2023-05-17T04:53:49.510Z,3.62
2023-05-17T04:56:14.952Z,4.13
2023-05-17T04:57:24.208Z,4.13
2023-05-17T05:00:18.925Z,3.80
2023-05-17T05:02:50.474Z,3.43
2023-05-17T05:05:16.087Z,3.52
2023-05-17T05:07:41.139Z,3.90
2023-05-17T05:10:07.521Z,3.47
2023-05-17T05:11:17.971Z,3.72
2023-05-17T05:13:43.458Z,3.65
2023-05-17T05:16:08.907Z,3.67
2023-05-17T05:18:33.622Z,3.77
2023-05-17T05:20:59.290Z,3.80
2023-05-17T05:22:11.547Z,3.45
2023-05-17T05:24:36.047Z,3.68
2023-05-17T05:25:46.205Z,4.28
2023-05-17T05:26:55.731Z,3.30
2023-05-17T05:28:06.301Z,3.57
2023-05-17T05:29:15.698Z,3.33
2023-05-17T05:30:26.135Z,3.50
2023-05-17T05:32:53.672Z,4.00
2023-05-17T05:35:18.673Z,3.53
2023-05-17T05:37:44.133Z,3.53
2023-05-17T05:40:12.009Z,3.78
2023-05-17T05:42:37.626Z,3.58
2023-05-17T05:45:02.388Z,3.48
2023-05-17T05:46:12.559Z,3.92
2023-05-17T05:48:40.186Z,4.07
2023-05-17T05:51:06.245Z,3.85
2023-05-17T05:55:51.960Z,5.10
2023-05-17T05:58:18.026Z,4.00
2023-05-17T06:00:43.858Z,4.00
2023-05-17T06:03:10.412Z,3.28
2023-05-17T06:05:34.681Z,2.87
2023-05-17T06:07:58.458Z,3.28
2023-05-17T06:09:07.934Z,3.85
2023-05-17T06:10:17.513Z,4.35
2023-05-17T06:12:42.288Z,3.43
2023-05-17T06:13:52.096Z,3.30
2023-05-17T06:16:15.794Z,2.82
2023-05-17T06:17:24.566Z,2.90
2023-05-17T06:19:49.506Z,3.13
2023-05-17T06:22:15.522Z,4.10
2023-05-17T06:24:40.444Z,2.78
2023-05-17T06:27:09.264Z,2.93
2023-05-17T06:28:19.502Z,2.67
2023-05-17T06:30:44.492Z,3.02
2023-05-17T06:33:11.997Z,3.05
2023-05-17T06:35:54.243Z,2.72
2023-05-17T06:36:50.344Z,3.20
2023-05-17T06:38:06.401Z,2.90
2023-05-17T06:40:30.474Z,2.85
2023-05-17T06:42:54.186Z,3.18
2023-05-17T06:45:19.112Z,3.08
2023-05-17T06:47:44.446Z,3.42
2023-05-17T06:50:11.173Z,2.53
2023-05-17T06:52:35.928Z,2.65
2023-05-17T06:55:00.771Z,2.90
2023-05-17T06:56:11.273Z,2.80
2023-05-17T06:58:35.301Z,4.25
2023-05-17T07:00:59.110Z,4.50
2023-05-17T07:03:23.330Z,2.70
2023-05-17T07:04:32.799Z,3.63
2023-05-17T07:06:56.901Z,4.15
2023-05-17T07:09:21.440Z,7.75
2023-05-17T07:10:32.903Z,4.05
2023-05-17T07:13:01.087Z,3.13
2023-05-17T07:15:44.246Z,2.42
2023-05-17T07:18:10.426Z,2.82
2023-05-17T07:20:35.752Z,3.05
2023-05-17T07:21:45.904Z,5.40
2023-05-17T07:24:13.670Z,4.95
2023-05-17T07:26:38.050Z,2.08
2023-05-17T07:29:03.504Z,2.53
2023-05-17T07:31:30.643Z,2.50
2023-05-17T07:33:57.858Z,2.02
2023-05-17T07:36:22.194Z,2.75
2023-05-17T07:38:46.146Z,2.05
2023-05-17T07:41:14.096Z,2.27
2023-05-17T07:43:39.132Z,1.80
2023-05-17T07:46:05.241Z,2.15
2023-05-17T07:48:29.366Z,2.12
2023-05-17T07:50:55.340Z,2.18
2023-05-17T07:53:21.342Z,2.25
2023-05-17T07:55:49.615Z,2.08
2023-05-17T07:58:15.534Z,2.52
2023-05-17T08:00:41.514Z,2.40
2023-05-17T08:01:51.459Z,3.70
2023-05-17T08:04:16.680Z,3.33
2023-05-17T08:06:42.517Z,2.23
2023-05-17T08:09:08.162Z,2.02
2023-05-17T08:11:40.579Z,2.53
2023-05-17T08:15:12.844Z,2.12
2023-05-17T08:16:24.585Z,2.03
2023-05-17T08:18:48.117Z,2.15
2023-05-17T08:19:57.340Z,2.22
2023-05-17T08:21:06.622Z,1.75
2023-05-17T08:22:16.885Z,2.43
2023-05-17T08:24:42.439Z,2.13
2023-05-17T08:27:07.174Z,2.15
2023-05-17T08:29:31.758Z,2.13
2023-05-17T08:30:42.416Z,2.50
2023-05-17T08:33:10.963Z,2.25
2023-05-17T08:40:29.798Z,2.00
2023-05-17T08:42:57.174Z,2.37
2023-05-17T08:44:07.237Z,1.73
2023-05-17T08:45:17.833Z,2.35
2023-05-17T08:47:44.181Z,2.00
2023-05-17T08:50:12.592Z,2.28
2023-05-17T08:52:38.689Z,2.05
2023-05-17T08:55:07.920Z,1.90
2023-05-17T08:57:39.450Z,2.05
2023-05-17T08:58:57.025Z,1.97
2023-05-17T09:00:15.097Z,1.68
2023-05-17T09:01:25.992Z,1.68
2023-05-17T09:02:36.200Z,2.33
2023-05-17T09:05:08.156Z,2.00
2023-05-17T09:07:39.375Z,1.70
2023-05-17T09:08:54.016Z,2.02
2023-05-17T09:11:29.633Z,2.25
2023-05-17T09:13:54.028Z,1.82
2023-05-17T09:15:15.083Z,1.53
2023-05-17T09:17:43.047Z,1.54
2023-05-17T09:20:12.315Z,2.12
2023-05-17T09:21:22.919Z,1.70
2023-05-17T09:24:01.787Z,1.60
2023-05-17T09:26:18.634Z,2.20
2023-05-17T09:27:30.515Z,2.32
2023-05-17T09:29:57.670Z,2.08
2023-05-17T09:32:27.684Z,1.80
2023-05-17T09:35:05.162Z,1.88
2023-05-17T09:37:38.850Z,2.37
2023-05-17T09:40:25.302Z,2.03
2023-05-17T09:43:00.954Z,2.13
2023-05-17T09:45:27.198Z,2.80
2023-05-17T09:47:55.344Z,2.47
2023-05-17T09:49:04.948Z,2.55
2023-05-17T09:51:47.150Z,3.30
2023-05-17T09:54:06.673Z,2.47
2023-05-17T09:55:18.006Z,1.95
2023-05-17T09:57:46.716Z,1.95
2023-05-17T10:00:12.783Z,1.88
2023-05-17T10:02:42.780Z,2.00
2023-05-17T10:05:12.850Z,2.03
2023-05-17T10:07:40.898Z,1.92
2023-05-17T10:10:13.438Z,2.33
2023-05-17T10:12:52.264Z,3.35
2023-05-17T10:15:28.578Z,2.23
2023-05-17T10:17:55.866Z,2.07
2023-05-17T10:20:21.693Z,2.33
2023-05-17T10:22:49.319Z,2.70
2023-05-17T10:25:17.119Z,3.25
2023-05-17T10:27:43.061Z,2.45
2023-05-17T10:30:14.726Z,2.37
2023-05-17T10:32:41.441Z,2.28
2023-05-17T10:35:11.916Z,2.22
2023-05-17T10:37:39.892Z,2.50
2023-05-17T10:40:04.401Z,2.25
2023-05-17T10:42:34.173Z,2.22
2023-05-17T10:45:04.542Z,1.98
2023-05-17T10:47:34.376Z,2.00
2023-05-17T10:50:07.011Z,1.82
2023-05-17T10:52:33.399Z,2.67
2023-05-17T10:55:11.353Z,2.20
2023-05-17T11:00:06.861Z,2.12
2023-05-17T11:02:38.921Z,1.82
2023-05-17T11:05:04.819Z,1.88
2023-05-17T11:07:40.696Z,1.97
2023-05-17T11:10:27.170Z,2.35
2023-05-17T11:12:54.435Z,1.90
2023-05-17T11:14:06.434Z,2.07
2023-05-17T11:16:36.883Z,1.60
2023-05-17T11:19:10.665Z,1.78
2023-05-17T11:21:47.208Z,1.52
2023-05-17T11:24:26.970Z,2.07
2023-05-17T11:26:56.474Z,1.65
2023-05-17T11:29:42.638Z,1.92
2023-05-17T11:32:32.012Z,1.70
2023-05-17T11:33:46.134Z,1.70
2023-05-17T11:36:22.589Z,1.80
2023-05-17T11:37:31.950Z,1.52
2023-05-17T11:40:08.136Z,1.67
2023-05-17T11:42:37.738Z,1.47
2023-05-17T11:45:04.074Z,1.45
2023-05-17T11:47:40.135Z,1.47
2023-05-17T11:48:53.497Z,1.23
2023-05-17T11:51:20.287Z,1.52
2023-05-17T11:53:50.372Z,1.52
2023-05-17T11:55:01.574Z,1.75
2023-05-17T11:56:12.238Z,1.47
2023-05-17T11:58:43.043Z,1.20
2023-05-17T12:01:10.489Z,1.27
2023-05-17T12:02:31.378Z,1.58
2023-05-17T12:04:55.657Z,1.25
2023-05-17T12:07:26.066Z,1.43
2023-05-17T12:09:52.353Z,1.53
2023-05-17T12:11:02.276Z,1.10
2023-05-17T12:13:30.940Z,2.68
2023-05-17T12:16:21.420Z,1.62
2023-05-17T12:18:53.011Z,1.47
2023-05-17T12:21:25.383Z,1.35
2023-05-17T12:22:35.204Z,1.30
2023-05-17T12:23:48.850Z,2.05
2023-05-17T12:27:30.966Z,2.07
2023-05-17T12:30:16.669Z,1.60
2023-05-17T12:32:51.427Z,1.50
2023-05-17T12:35:17.687Z,1.50
2023-05-17T12:38:03.926Z,2.10
2023-05-17T12:40:32.131Z,1.90
2023-05-17T12:43:05.680Z,3.14
2023-05-17T12:45:30.174Z,1.83
2023-05-17T12:47:55.018Z,1.90
2023-05-17T12:51:47.249Z,2.30
2023-05-17T12:54:15.903Z,3.22
2023-05-17T12:56:44.965Z,3.13
2023-05-17T12:59:14.012Z,3.10
2023-05-17T13:01:48.382Z,2.85
2023-05-17T13:02:57.565Z,2.52
2023-05-17T13:05:22.542Z,2.80
2023-05-17T13:08:24.218Z,3.50
2023-05-17T13:10:51.161Z,3.23
2023-05-17T13:13:20.255Z,3.12
2023-05-17T13:14:45.635Z,3.27
2023-05-17T13:17:14.551Z,3.37
2023-05-17T13:19:41.862Z,3.18
2023-05-17T13:22:06.230Z,2.87
2023-05-17T13:24:37.003Z,3.40
2023-05-17T13:25:45.674Z,2.75
2023-05-17T13:28:09.876Z,2.62
2023-05-17T13:29:25.623Z,3.30
2023-05-17T13:30:31.097Z,2.87
2023-05-17T13:32:58.497Z,2.42
2023-05-17T13:35:22.540Z,2.60
2023-05-17T13:36:32.751Z,2.25
2023-05-17T13:37:42.430Z,2.95
2023-05-17T13:40:07.681Z,2.15
2023-05-17T13:42:32.088Z,2.62
2023-05-17T13:44:56.902Z,3.00
2023-05-17T13:47:21.051Z,2.45
2023-05-17T13:50:06.207Z,2.32
2023-05-17T13:52:33.554Z,2.15
2023-05-17T13:53:44.143Z,2.48
2023-05-17T13:54:54.008Z,2.70
2023-05-17T13:56:02.991Z,2.32
2023-05-17T13:57:13.973Z,2.10
2023-05-17T14:00:47.261Z,4.10
2023-05-17T14:03:13.881Z,2.38
2023-05-17T14:05:39.068Z,1.87
2023-05-17T14:06:49.842Z,2.35
2023-05-17T14:07:59.764Z,2.53
2023-05-17T14:09:10.262Z,2.43
2023-05-17T14:11:35.463Z,2.32
2023-05-17T14:14:00.550Z,2.85
2023-05-17T14:16:28.002Z,2.47
2023-05-17T14:17:37.619Z,2.30
2023-05-17T14:20:08.407Z,1.97
2023-05-17T14:21:17.495Z,2.00
2023-05-17T14:23:41.561Z,2.10
2023-05-17T14:26:06.886Z,2.32
2023-05-17T14:27:23.783Z,2.13
2023-05-17T14:29:50.634Z,1.93
2023-05-17T14:32:15.359Z,1.98
2023-05-17T14:33:30.763Z,1.93
2023-05-17T14:34:40.298Z,1.50
2023-05-17T14:35:50.050Z,1.95
2023-05-17T14:36:58.784Z,2.08
2023-05-17T14:39:24.807Z,1.95
2023-05-17T14:40:35.648Z,2.20
2023-05-17T14:44:11.257Z,1.88
2023-05-17T14:46:36.398Z,1.93
2023-05-17T14:49:02.228Z,1.93
2023-05-17T14:50:11.450Z,1.72
2023-05-17T14:51:21.279Z,1.82
2023-05-17T14:52:30.961Z,1.70
2023-05-17T14:54:58.786Z,2.00
2023-05-17T14:57:22.943Z,2.22
2023-05-17T14:59:52.551Z,2.23
2023-05-17T15:01:05.633Z,2.18
2023-05-17T15:03:28.432Z,1.65
2023-05-17T15:04:38.789Z,1.77
2023-05-17T15:07:13.517Z,1.75
2023-05-17T15:08:22.884Z,1.60
2023-05-17T15:10:49.723Z,1.77
2023-05-17T15:13:13.307Z,2.47
2023-05-17T15:15:39.861Z,2.00
2023-05-17T15:18:13.912Z,2.05
2023-05-17T15:20:41.521Z,1.50
2023-05-17T15:23:07.188Z,1.50
2023-05-17T15:25:33.091Z,1.68
2023-05-17T15:27:58.894Z,2.00
2023-05-17T15:30:26.353Z,1.90
2023-05-17T15:32:50.985Z,1.60
2023-05-17T15:35:15.220Z,1.63
2023-05-17T15:36:23.987Z,1.83
2023-05-17T15:37:34.003Z,1.80
2023-05-17T15:40:10.674Z,1.95
2023-05-17T15:42:37.310Z,2.13
2023-05-17T15:43:47.392Z,1.97
2023-05-17T15:47:23.898Z,1.87
2023-05-17T15:49:49.407Z,1.60
2023-05-17T15:52:13.324Z,2.87
2023-05-17T15:54:37.665Z,3.22
2023-05-17T15:57:05.474Z,2.30
2023-05-17T15:59:29.347Z,1.77
2023-05-17T16:01:53.094Z,2.57
2023-05-17T16:03:02.791Z,2.08
2023-05-17T16:04:13.945Z,2.47
2023-05-17T16:06:39.020Z,3.77
2023-05-17T16:09:06.381Z,13.75
2023-05-17T16:11:30.762Z,13.05
2023-05-17T16:13:55.121Z,8.57
2023-05-17T16:15:04.777Z,9.95
2023-05-17T16:17:29.883Z,19.57
2023-05-17T16:19:55.740Z,11.00
2023-05-17T16:23:32.258Z,4.63
2023-05-17T16:24:43.891Z,3.40
2023-05-17T16:27:09.056Z,3.18
2023-05-17T16:29:37.596Z,3.17
2023-05-17T16:32:21.312Z,2.50
2023-05-17T16:34:45.050Z,2.75
2023-05-17T16:37:10.557Z,3.15
2023-05-17T16:39:35.686Z,3.25
2023-05-17T16:40:47.200Z,3.10
2023-05-17T16:41:56.408Z,3.15
2023-05-17T16:44:22.750Z,2.90
2023-05-17T16:46:46.536Z,3.38
2023-05-17T16:49:10.655Z,2.90
2023-05-17T16:51:35.978Z,3.80
2023-05-17T16:54:02.194Z,8.73
2023-05-17T16:55:12.336Z,4.92
2023-05-17T16:57:36.718Z,3.38
2023-05-17T16:58:45.371Z,3.70
2023-05-17T17:01:11.352Z,3.92
2023-05-17T17:02:20.878Z,3.35
2023-05-17T17:03:30.535Z,3.27
2023-05-17T17:05:54.071Z,4.07
2023-05-17T17:08:19.476Z,3.33
2023-05-17T17:09:28.973Z,3.52
2023-05-17T17:12:24.008Z,2.40
2023-05-17T17:14:43.566Z,2.50
2023-05-17T17:17:08.846Z,2.15
2023-05-17T17:19:36.121Z,2.45
2023-05-17T17:22:03.687Z,2.60
2023-05-17T17:24:27.549Z,2.65
2023-05-17T17:26:51.804Z,4.28
2023-05-17T17:29:15.986Z,3.63
2023-05-17T17:30:25.962Z,6.67
2023-05-17T17:32:51.899Z,4.85
2023-05-17T17:34:02.204Z,5.50
2023-05-17T17:35:11.153Z,7.85
2023-05-17T17:36:20.815Z,6.80
2023-05-17T17:38:44.619Z,5.22
2023-05-17T17:41:11.735Z,8.67
2023-05-17T17:42:20.612Z,8.95
2023-05-17T17:44:44.616Z,7.42
2023-05-17T17:47:09.036Z,9.87
2023-05-17T17:49:36.090Z,5.75
2023-05-17T17:52:00.465Z,7.06
2023-05-17T17:54:26.373Z,7.65
2023-05-17T17:56:51.256Z,7.42
2023-05-17T17:59:15.730Z,5.88
2023-05-17T18:01:39.687Z,5.98
2023-05-17T18:04:04.882Z,5.32
2023-05-17T18:06:29.246Z,5.22
2023-05-17T18:08:54.473Z,4.33
2023-05-17T18:11:21.111Z,4.32
2023-05-17T18:13:45.991Z,4.35
2023-05-17T18:16:11.061Z,4.05
2023-05-17T18:18:37.519Z,4.08
2023-05-17T18:21:03.837Z,3.85
2023-05-17T18:23:32.055Z,4.30
2023-05-17T18:25:56.167Z,4.37
2023-05-17T18:28:37.598Z,3.27
2023-05-17T18:30:51.263Z,3.16
2023-05-17T18:33:17.086Z,3.52
2023-05-17T18:34:26.261Z,3.38
2023-05-17T18:36:51.072Z,3.20
2023-05-17T18:39:16.231Z,3.98
2023-05-17T18:41:42.257Z,3.63
2023-05-17T18:44:08.891Z,3.25
2023-05-17T18:46:33.999Z,4.02
2023-05-17T18:48:59.285Z,4.10
2023-05-17T18:51:25.794Z,3.70
2023-05-17T18:55:06.005Z,3.03
2023-05-17T18:57:32.400Z,2.85
2023-05-17T18:59:57.319Z,2.75
2023-05-17T19:02:21.136Z,3.38
2023-05-17T19:04:45.638Z,2.97
2023-05-17T19:07:10.770Z,2.80
2023-05-17T19:08:20.227Z,2.83
2023-05-17T19:09:30.205Z,3.08
2023-05-17T19:10:40.036Z,3.25
2023-05-17T19:11:50.238Z,3.20
2023-05-17T19:14:14.666Z,2.88
2023-05-17T19:15:23.528Z,3.03
2023-05-17T19:17:50.247Z,2.95
2023-05-17T19:19:00.787Z,3.20
2023-05-17T19:21:25.760Z,2.63
2023-05-17T19:23:51.273Z,2.75
2023-05-17T19:26:17.425Z,2.60
2023-05-17T19:27:27.080Z,2.60
2023-05-17T19:29:51.547Z,2.78
2023-05-17T19:32:15.474Z,2.98
2023-05-17T19:34:40.672Z,2.75
2023-05-17T19:37:11.370Z,3.17
2023-05-17T19:39:36.952Z,3.80
2023-05-17T19:42:03.099Z,3.50
2023-05-17T19:43:12.573Z,3.20
2023-05-17T19:44:21.433Z,3.48
2023-05-17T19:46:45.755Z,3.90
2023-05-17T19:47:56.171Z,3.43
2023-05-17T19:50:20.180Z,3.37
2023-05-17T19:51:29.263Z,3.37
2023-05-17T19:53:55.828Z,3.25
2023-05-17T19:56:23.571Z,3.65
2023-05-17T19:58:47.341Z,3.30
2023-05-17T19:59:56.009Z,3.28
2023-05-17T20:02:20.131Z,4.50
2023-05-17T20:04:46.523Z,5.40
2023-05-17T20:07:10.569Z,3.45
2023-05-17T20:09:37.796Z,3.48
2023-05-17T20:12:02.142Z,3.75
2023-05-17T20:14:27.544Z,3.52
2023-05-17T20:16:52.836Z,3.85
2023-05-17T20:19:16.479Z,3.45
2023-05-17T20:21:41.696Z,3.13
2023-05-17T20:24:07.387Z,3.97
2023-05-17T20:26:35.007Z,3.72
2023-05-17T20:29:07.840Z,3.68
2023-05-17T20:31:36.049Z,3.55
2023-05-17T20:33:59.540Z,3.37
2023-05-17T20:36:25.495Z,2.98
2023-05-17T20:37:35.314Z,3.45
2023-05-17T20:39:59.766Z,3.50
2023-05-17T20:42:28.203Z,3.20
2023-05-17T20:44:53.956Z,3.18
2023-05-17T20:47:21.992Z,3.10
2023-05-17T20:49:51.983Z,4.12
2023-05-17T20:51:02.003Z,3.15
2023-05-17T20:53:25.561Z,3.15
2023-05-17T20:55:49.775Z,3.10
2023-05-17T20:57:00.008Z,3.35
2023-05-17T20:59:22.016Z,3.05
2023-05-17T21:01:46.335Z,2.97
2023-05-17T21:02:57.145Z,3.15
2023-05-17T21:07:42.436Z,2.92
2023-05-17T21:10:09.535Z,3.07
2023-05-17T21:12:36.870Z,3.15
2023-05-17T21:13:46.612Z,3.68
2023-05-17T21:15:14.424Z,3.35
2023-05-17T21:16:07.964Z,2.90
2023-05-17T21:18:31.793Z,3.30
2023-05-17T21:19:40.428Z,3.13
2023-05-17T21:22:06.370Z,3.13
2023-05-17T21:24:32.507Z,3.08
2023-05-17T21:26:57.432Z,3.15
2023-05-17T21:29:23.125Z,3.10
2023-05-17T21:30:33.024Z,2.88
2023-05-17T21:32:58.659Z,3.42
2023-05-17T21:35:23.774Z,2.83
2023-05-17T21:37:48.157Z,3.30
2023-05-17T21:40:12.126Z,3.48
2023-05-17T21:42:38.290Z,3.00
2023-05-17T21:45:06.506Z,3.42
2023-05-17T21:47:30.773Z,3.07
2023-05-17T21:49:55.646Z,3.12
2023-05-17T21:52:20.438Z,3.67
2023-05-17T21:54:45.471Z,3.23
2023-05-17T21:57:10.808Z,3.05
2023-05-17T21:59:37.373Z,3.23
2023-05-17T22:02:03.583Z,3.53
2023-05-17T22:03:13.624Z,3.28
2023-05-17T22:04:22.955Z,3.20
2023-05-17T22:06:55.949Z,2.82
2023-05-17T22:09:20.353Z,3.22
2023-05-17T22:11:46.964Z,3.07
2023-05-17T22:14:13.403Z,2.87
2023-05-17T22:16:39.591Z,3.28
2023-05-17T22:17:53.065Z,3.12
2023-05-17T22:20:36.969Z,2.90
2023-05-17T22:21:46.599Z,3.15
2023-05-17T22:24:20.426Z,2.65
2023-05-17T22:25:40.070Z,3.28
2023-05-17T22:28:03.969Z,3.27
2023-05-17T22:30:27.645Z,2.65
2023-05-17T22:32:55.637Z,3.50
2023-05-17T22:34:05.629Z,3.00
2023-05-17T22:36:31.348Z,2.63
2023-05-17T22:37:42.404Z,2.63
2023-05-17T22:40:10.427Z,3.02
2023-05-17T22:42:34.023Z,2.60
2023-05-17T22:43:42.937Z,3.30
2023-05-17T22:44:52.483Z,3.37
2023-05-17T22:47:16.480Z,2.80
2023-05-17T22:48:26.640Z,2.97
2023-05-17T22:50:52.613Z,3.00
2023-05-17T22:52:07.180Z,3.12
2023-05-17T22:53:17.703Z,2.57
2023-05-17T22:56:01.980Z,3.12
2023-05-17T22:57:12.339Z,3.00
2023-05-17T22:58:23.699Z,2.85
2023-05-17T22:59:32.885Z,2.77
2023-05-17T23:01:57.802Z,3.35
2023-05-17T23:03:08.055Z,2.98
2023-05-17T23:04:18.437Z,2.55
2023-05-17T23:05:31.571Z,3.00
2023-05-17T23:07:56.002Z,2.68
2023-05-17T23:09:06.676Z,2.90
2023-05-17T23:11:32.399Z,3.13
2023-05-17T23:13:56.628Z,2.78
2023-05-17T23:16:25.497Z,3.33
2023-05-17T23:18:52.564Z,3.30
2023-05-17T23:20:13.441Z,3.70
2023-05-17T23:22:39.374Z,2.98
2023-05-17T23:25:09.733Z,3.38
2023-05-17T23:27:30.140Z,2.95
2023-05-17T23:29:55.070Z,3.90
2023-05-17T23:32:23.067Z,2.66
2023-05-17T23:33:31.863Z,2.73
2023-05-17T23:34:43.387Z,2.85
2023-05-17T23:35:54.974Z,3.00
2023-05-17T23:37:04.474Z,3.15
2023-05-17T23:39:32.224Z,2.75
2023-05-17T23:40:41.972Z,2.25
2023-05-17T23:41:53.012Z,2.93
2023-05-17T23:44:19.665Z,2.78
2023-05-17T23:46:46.222Z,2.80
2023-05-17T23:49:14.191Z,2.85
2023-05-17T23:51:39.556Z,2.46
2023-05-17T23:52:50.435Z,3.05
2023-05-17T23:55:16.065Z,2.78
2023-05-17T23:57:43.120Z,2.97
